Metar Report
Metar
METAR KN23 230256Z AUTO 00000KT 10SM CLR 02/M03 A3040 A02 8
METAR KN23 230156Z AUTO 00000KT 10SM CLR 04/M05 A3040 A02 7
METAR KN23 230056Z AUTO 00000KT 10SM CLR 07/M07 A3039 A02 6
METAR KN23 222356Z AUTO 00000KT 10SM CLR 12/M08 A3035 A02 5
METAR KN23 222256Z AUTO 02004KT 10SM CLR 13/M09 A3034 A02 4
METAR KN23 222156Z AUTO 36007G15KT 10SM CLR 14/M07 A3034 A02 3
METAR KN23 222056Z AUTO 01007KT 10SM CLR 15/M08 A3033 A02 2
METAR KN23 221956Z AUTO 30006KT 10SM CLR 16/M06 A3034 A02 1
METAR KN23 221856Z AUTO 02013G17KT 10SM CLR 16/M07 A3035 A02 0
METAR KN23 221756Z AUTO 34010G16KT 310V010 10SM CLR 15/M07 A3037 A02 69
METAR KN23 221656Z AUTO 02009KT 330V050 10SM CLR 14/M07 A3038 A02 68
METAR KN23 221556Z AUTO 28008G15KT 10SM CLR 13/M07 A3041 A02 67
METAR KN23 221456Z AUTO 21004KT 10SM CLR 12/M06 A3042 A02 66
METAR KN23 221356Z AUTO 29003KT 10SM CLR 07/M04 A3042 A02 65
METAR KN23 221256Z AUTO 28003KT 10SM CLR 02/M04 A3043 A02 64
METAR KN23 221156Z AUTO 00000KT 10SM CLR M02/M04 A3043 A02 63
METAR KN23 221056Z AUTO 00000KT 10SM CLR M04/M05 A3042 A02 62
METAR KN23 220956Z AUTO 00000KT 10SM CLR M05/M06 A3040 A02 61
METAR KN23 220856Z AUTO 00000KT 10SM CLR M04/M06 A3039 A02 60
METAR KN23 220756Z AUTO 00000KT 10SM CLR M03/M05 A3039 A02 59
METAR KN23 220656Z AUTO 00000KT 10SM CLR M03/M06 A3039 A02 58
METAR KN23 220556Z AUTO 00000KT 10SM CLR M03/M06 A3039 A02 57
METAR KN23 220456Z AUTO 00000KT 10SM CLR M03/M06 A3039 A02 56
METAR KN23 220356Z AUTO 00000KT 10SM CLR M01/M04 A3039 A02 55
METAR KN23 220256Z AUTO 00000KT 10SM CLR 00/M04 A3038 A02 54
METAR KN23 220156Z AUTO 00000KT 10SM CLR 02/M06 A3037 A02 53
METAR KN23 220056Z AUTO 00000KT 10SM CLR 04/M06 A3035 A02 52
METAR KN23 212356Z AUTO 00000KT 10SM CLR 09/M08 A3035 A02 51
METAR KN23 212256Z AUTO 29008KT 10SM CLR 10/M08 A3032 A02 50
METAR KN23 212156Z AUTO 31008G17KT 280V340 10SM CLR 12/M08 A3031 A02 49
METAR KN23 212056Z AUTO 34007G16KT 10SM CLR 12/M07 A3030 A02 48
METAR KN23 211956Z AUTO 01006KT 10SM CLR 13/M06 A3031 A02 47
METAR KN23 211856Z AUTO 01009KT 340V040 10SM CLR 12/M07 A3033 A02 46
METAR KN23 211756Z AUTO 28006G14KT 10SM CLR 12/M06 A3035 A02 45
METAR KN23 211656Z AUTO 31006KT 10SM CLR 11/M04 A3037 A02 44
METAR KN23 211556Z AUTO 30010G15KT 10SM CLR 09/M05 A3039 A02 43
METAR KN23 211456Z AUTO 28007KT 10SM CLR 09/M03 A3041 A02 42
METAR KN23 211356Z AUTO 24004KT 10SM CLR 04/M03 A3042 A02 41
METAR KN23 211256Z AUTO 26004KT 10SM CLR 02/M02 A3041 A02 40
METAR KN23 211156Z AUTO 00000KT 10SM CLR M03/M03 A3040 A02 39
METAR KN23 211056Z AUTO 00000KT 10SM CLR M05/M05 A3040 A02 38
METAR KN23 210956Z AUTO 00000KT 10SM CLR M06/M06 A3040 A02 37
METAR KN23 210856Z AUTO 24003KT 10SM CLR M06/M06 A3039 A02 36
METAR KN23 210756Z AUTO 24003KT 10SM CLR M04/M04 A3038 A02 35
METAR KN23 210656Z AUTO 24003KT 10SM CLR M04/M04 A3038 A02 34
METAR KN23 210556Z AUTO 24003KT 10SM CLR M03/M03 A3037 A02 33
METAR KN23 210456Z AUTO 00000KT 10SM CLR M03/M03 A3037 A02 32
METAR KN23 210356Z AUTO 23003KT 10SM CLR M03/M03 A3037 A02 31
METAR KN23 210256Z AUTO 00000KT 10SM CLR M02/M03 A3037 A02 30
METAR KN23 210156Z AUTO 00000KT 10SM CLR M02/M03 A3036 A02 29
METAR KN23 210056Z AUTO 24003KT 10SM CLR M01/M04 A3035 A02 28
METAR KN23 202356Z AUTO 00000KT 10SM SCT047 02/M05 A3034 A02 27
METAR KN23 202256Z AUTO 00000KT 10SM BKN040 OVC046 03/M04 A3033 A02 26
METAR KN23 202156Z AUTO 35009G14KT 10SM OVC038 03/M04 A3032 A02 25
METAR KN23 202056Z AUTO 31010G16KT 260V340 10SM OVC038 03/M04 A3030 A02 24
METAR KN23 201956Z AUTO 30009KT 10SM OVC036 03/M04 A3029 A02 23
METAR KN23 201856Z AUTO 30009G14KT 10SM OVC034 02/M05 A3028 A02 22
METAR KN23 201756Z AUTO 31010G15KT 280V360 10SM OVC030 01/M04 A3028 A02 21
METAR KN23 201656Z AUTO 31009G15KT 10SM OVC028 00/M06 A3027 A02 20
METAR KN23 201556Z AUTO 31010G14KT 10SM OVC028 00/M05 A3025 A02 19
METAR KN23 201456Z AUTO 30009G14KT 10SM OVC028 00/M05 A3024 A02 18
METAR KN23 201356Z AUTO 30007KT 10SM OVC028 00/M05 A3022 A02 17
METAR KN23 201256Z AUTO 32010G16KT 10SM OVC030 M01/M07 A3020 A02 16
METAR KN23 201156Z AUTO 32007KT 290V350 10SM BKN030 OVC034 M01/M05 A3018 A02 15
METAR KN23 201056Z AUTO 28004KT 7SM SCT028 OVC036 M02/M05 A3015 A02 14
METAR KN23 200956Z AUTO 28004KT 7SM OVC030 M02/M04 A3013 A02 13
METAR KN23 200856Z AUTO 30005KT 4SM -SN SCT028 OVC038 M02/M04 A3010 A02 12
METAR KN23 200756Z AUTO 28007KT 7SM -SN SCT028 OVC042 M02/M05 A3007 A02 11
METAR KN23 200656Z AUTO 31007KT 10SM BKN038 OVC050 M01/M05 A3006 A02 10
METAR KN23 200556Z AUTO 32008KT 290V010 10SM SCT029 OVC048 M01/M05 A3005 A02 9